AirNav   Pilot Hours Calculator
 
 485 users online  

9NC2 Flyers Airpark
Linden, North Carolina, USA

GOING TO LINDEN?


FAA INFORMATION EFFECTIVE 03 NOVEMBER 2022

Location

FAA Identifier: 9NC2
Lat/Long: 35-13-05.5860N 078-47-47.0840W
35-13.093100N 078-47.784733W
35.2182183,-78.7964122
(estimated)
Elevation: 115 ft. / 35 m (estimated)
Variation: 07W (1985)
From city: 4 miles N of LINDEN, NC
Time zone: UTC -5 (UTC -4 during Daylight Saving Time)
Zip code: 28356

Airport Operations

Airport use: Private use. Permission required prior to landing
Activation date: 06/1991
Control tower: no
ARTCC: WASHINGTON CENTER
FSS: RALEIGH FLIGHT SERVICE STATION
Attendance: UNATNDD
Wind indicator: yes
Segmented circle: no

Airport Communications

WX AWOS-3 at HRJ (10 nm N): 119.025 (910-814-3946)
WX ASOS at FAY (14 nm S): 121.25 (910-484-1546)

Nearby radio navigation aids

VOR radial/distance  VOR name  Freq  Var
FAYr019/14.5FAYETTEVILLE VOR/DME114.8504W
SDZr093/38.8SANDHILLS VORTAC111.8003W
RDUr190/39.3RALEIGH/DURHAM VORTAC117.2009W

 
NDB name  Hdg/Dist  Freq  Var  ID
HARNETT213/14.241708WHQT .... --.- -
CLINTON313/25.841209WCTZ -.-. - --..

Airport Services

Runway Information

Runway 4/22

Dimensions: 2850 x 65 ft. / 869 x 20 m
Surface: turf
RUNWAY 4  RUNWAY 22
Traffic pattern: leftleft
Obstructions: 55 ft. trees, 150 ft. from runway70 ft. trees, 50 ft. from runway

Airport Ownership and Management from official FAA records

Ownership: Privately-owned
Owner: RONNIE BILL
657 FLYERS DRIVE
LINDEN, NC 28356
Phone (910) 980-0846
Manager: RONNIE BILL
657 FLYERS DRIVE
LINDEN, NC 28356
Phone (910) 980-0846

Airport Operational Statistics

Aircraft based on the field: 5
Single engine airplanes: 3
Ultralights: 2
    

Additional Remarks

FOR CD CTC WASHINGTON ARTCC AT 703-771-3587.

Instrument Procedures

There are no published instrument procedures at 9NC2.

Some nearby airports with instrument procedures:

KFBG - Simmons Army Airfield (9 nm SW)
KHRJ - Harnett Regional Jetport Airport (10 nm N)
KPOB - Pope Army Airfield (11 nm W)
KFAY - Fayetteville Regional Airport/Grannis Field (14 nm S)
5W4 - P K Airpark (23 nm SW)
 
Loc | Ops | Rwys | IFR | FBO | Links
Com | Nav | Svcs | Stats | Notes
Area around 9NC2 (Flyers Airpark)
 
Road maps at: MapQuest Bing Google
 
Aerial photo
WARNING: Photo may not be current or correct
Aerial photo of 9NC2 (Flyers Airpark)
Photo taken 05-Mar-2006
Photo taken from 1000 ft

Do you have a better or more recent aerial photo of Flyers Airpark that you would like to share? If so, please send us your photo.

 
Sectional chart

 
Airport distance calculator
Flying to Flyers Airpark? Find the distance to fly.

From to 9NC2

Sunrise and sunset
Times for 28-Nov-2022
 Local
(UTC-5)
 Zulu
(UTC)
Morning civil twilight06:3611:36
Sunrise07:0412:04
Sunset17:0322:03
Evening civil twilight17:3022:30

Current date and time
Zulu (UTC)  28-Nov-2022 11:05:08
Local (UTC-5)  28-Nov-2022 06:05:08
 
METAR
KFBG 
8nm SW 
281055Z AUTO 24005KT 10SM CLR 11/07 A2978 RMK AO2 SLP086 T01130070 $
KHRJ 
10nm N 
281055Z AUTO 23005KT 10SM CLR 10/07 A2981 RMK AO2 T00960069
KPOB 
11nm W 
281055Z AUTO 22006KT 10SM CLR 09/07 A2980 RMK AO2 SLP094 T00920065 $
KFAY 
15nm S 
281053Z 22007KT 10SM CLR 11/08 A2981 RMK AO2 SLP088 T01110078
TAF
KFBG 
8nm SW 
281000Z 2810/2916 26010KT 9999 SKC QNH2982INS TX18/2818Z TN10/2911Z
KFAY 
15nm S 
280523Z 2806/2906 24007KT P6SM SKC FM281500 27010KT P6SM SCT050 FM282000 30006KT P6SM SKC
NOTAMs
Click for the latest NOTAMs
NOTAMs are issued by the DoD/FAA and will open in a separate window not controlled by AirNav.

 

 
 

Would you like to see your business listed on this page?

 If your business provides an interesting product or service to pilots, flight crews, aircraft, or users of the Flyers Airpark, you should consider listing it here.  To start the listing process, click on the button below
 
Add a business
 

Other Pages about Flyers Airpark

Update a link
 
Copyright © AirNav, LLC. All rights reserved. Privacy Policy  Contact